sensor_id;sensor_type;location;lat;lon;timestamp;noise_LAeq;noise_LA_min;noise_LA_max;noise_LA01;noise_LA95
66460;Laerm;58055;52.456;4.738;2023-04-26T00:00:06;34.00;30.28;43.32;;
66460;Laerm;58055;52.456;4.738;2023-04-26T00:00:18;34.63;30.53;45.82;;
66460;Laerm;58055;52.456;4.738;2023-04-26T00:00:28;36.08;30.33;49.14;;
66460;Laerm;58055;52.456;4.738;2023-04-26T00:00:42;32.45;30.37;39.22;;
66460;Laerm;58055;52.456;4.738;2023-04-26T00:00:52;32.68;29.83;40.78;;
66460;Laerm;58055;52.456;4.738;2023-04-26T00:01:04;32.10;29.83;41.69;;
66460;Laerm;58055;52.456;4.738;2023-04-26T00:01:14;31.99;30.17;39.67;;
66460;Laerm;58055;52.456;4.738;2023-04-26T00:01:25;32.05;30.22;39.10;;
66460;Laerm;58055;52.456;4.738;2023-04-26T00:01:36;32.45;30.03;42.87;;
66460;Laerm;58055;52.456;4.738;2023-04-26T00:01:47;32.40;30.17;37.62;;
66460;Laerm;58055;52.456;4.738;2023-04-26T00:01:57;31.74;30.22;34.44;;
66460;Laerm;58055;52.456;4.738;2023-04-26T00:02:08;35.66;30.39;46.30;;
66460;Laerm;58055;52.456;4.738;2023-04-26T00:02:18;32.37;30.18;41.43;;
66460;Laerm;58055;52.456;4.738;2023-04-26T00:02:28;31.66;30.04;37.71;;
66460;Laerm;58055;52.456;4.738;2023-04-26T00:02:39;31.76;30.38;35.45;;
66460;Laerm;58055;52.456;4.738;2023-04-26T00:02:49;31.58;30.20;37.39;;
66460;Laerm;58055;52.456;4.738;2023-04-26T00:03:03;31.37;30.16;33.59;;
66460;Laerm;58055;52.456;4.738;2023-04-26T00:03:13;31.63;30.23;33.57;;
66460;Laerm;58055;52.456;4.738;2023-04-26T00:03:23;32.31;30.45;37.06;;
66460;Laerm;58055;52.456;4.738;2023-04-26T00:03:34;32.08;30.29;34.67;;
66460;Laerm;58055;52.456;4.738;2023-04-26T00:03:45;32.03;30.20;39.02;;
66460;Laerm;58055;52.456;4.738;2023-04-26T00:03:55;34.50;30.69;44.97;;
66460;Laerm;58055;52.456;4.738;2023-04-26T00:04:06;32.09;30.52;36.36;;
66460;Laerm;58055;52.456;4.738;2023-04-26T00:04:17;34.93;30.25;42.89;;
66460;Laerm;58055;52.456;4.738;2023-04-26T00:04:27;37.20;33.16;48.85;;
66460;Laerm;58055;52.456;4.738;2023-04-26T00:04:38;34.68;33.18;37.92;;
66460;Laerm;58055;52.456;4.738;2023-04-26T00:04:52;34.27;32.69;37.52;;
66460;Laerm;58055;52.456;4.738;2023-04-26T00:05:06;36.01;33.51;39.52;;
66460;Laerm;58055;52.456;4.738;2023-04-26T00:05:18;36.64;34.12;40.48;;
66460;Laerm;58055;52.456;4.738;2023-04-26T00:05:28;37.74;35.69;41.21;;
66460;Laerm;58055;52.456;4.738;2023-04-26T00:05:39;37.69;35.65;39.37;;
66460;Laerm;58055;52.456;4.738;2023-04-26T00:05:49;37.47;34.73;45.27;;
66460;Laerm;58055;52.456;4.738;2023-04-26T00:05:59;36.59;35.07;40.25;;
66460;Laerm;58055;52.456;4.738;2023-04-26T00:06:12;36.48;34.77;40.45;;
66460;Laerm;58055;52.456;4.738;2023-04-26T00:06:23;37.03;35.09;39.01;;
66460;Laerm;58055;52.456;4.738;2023-04-26T00:06:36;37.60;35.88;38.84;;
66460;Laerm;58055;52.456;4.738;2023-04-26T00:06:46;33.91;30.31;40.22;;
66460;Laerm;58055;52.456;4.738;2023-04-26T00:06:58;31.69;30.23;33.16;;
66460;Laerm;58055;52.456;4.738;2023-04-26T00:07:09;31.74;30.01;33.35;;
66460;Laerm;58055;52.456;4.738;2023-04-26T00:07:22;32.26;30.27;41.54;;
66460;Laerm;58055;52.456;4.738;2023-04-26T00:07:33;32.07;30.04;33.74;;
66460;Laerm;58055;52.456;4.738;2023-04-26T00:07:44;32.79;31.15;38.31;;
66460;Laerm;58055;52.456;4.738;2023-04-26T00:07:54;32.69;30.91;34.87;;
66460;Laerm;58055;52.456;4.738;2023-04-26T00:08:05;32.73;30.05;39.40;;
66460;Laerm;58055;52.456;4.738;2023-04-26T00:08:15;32.24;30.63;37.65;;
66460;Laerm;58055;52.456;4.738;2023-04-26T00:08:25;32.15;30.69;36.24;;
66460;Laerm;58055;52.456;4.738;2023-04-26T00:08:35;31.82;30.54;33.36;;
66460;Laerm;58055;52.456;4.738;2023-04-26T00:08:46;31.63;30.17;33.29;;
66460;Laerm;58055;52.456;4.738;2023-04-26T00:08:56;31.71;30.32;33.10;;
66460;Laerm;58055;52.456;4.738;2023-04-26T00:09:06;31.93;30.45;33.94;;
66460;Laerm;58055;52.456;4.738;2023-04-26T00:09:17;31.96;30.53;36.69;;
66460;Laerm;58055;52.456;4.738;2023-04-26T00:09:30;31.69;30.26;33.41;;
66460;Laerm;58055;52.456;4.738;2023-04-26T00:09:40;31.55;30.21;33.27;;
66460;Laerm;58055;52.456;4.738;2023-04-26T00:09:51;31.35;30.19;32.80;;
66460;Laerm;58055;52.456;4.738;2023-04-26T00:10:01;31.30;29.93;32.43;;
66460;Laerm;58055;52.456;4.738;2023-04-26T00:10:12;31.67;30.32;33.56;;
66460;Laerm;58055;52.456;4.738;2023-04-26T00:10:22;31.55;30.27;33.69;;
66460;Laerm;58055;52.456;4.738;2023-04-26T00:10:32;31.11;29.81;32.12;;
66460;Laerm;58055;52.456;4.738;2023-04-26T00:10:43;31.65;29.96;37.01;;
66460;Laerm;58055;52.456;4.738;2023-04-26T00:10:53;31.97;29.94;40.00;;
66460;Laerm;58055;52.456;4.738;2023-04-26T00:11:03;32.09;30.16;38.50;;
66460;Laerm;58055;52.456;4.738;2023-04-26T00:11:13;32.27;30.54;37.55;;
66460;Laerm;58055;52.456;4.738;2023-04-26T00:11:24;31.75;30.22;36.13;;
66460;Laerm;58055;52.456;4.738;2023-04-26T00:11:34;31.43;30.14;36.03;;
66460;Laerm;58055;52.456;4.738;2023-04-26T00:11:44;31.24;29.99;32.66;;
66460;Laerm;58055;52.456;4.738;2023-04-26T00:11:55;31.38;30.05;32.89;;
66460;Laerm;58055;52.456;4.738;2023-04-26T00:12:05;31.65;30.24;33.27;;
66460;Laerm;58055;52.456;4.738;2023-04-26T00:12:16;31.61;29.88;38.30;;
66460;Laerm;58055;52.456;4.738;2023-04-26T00:12:26;31.38;30.19;32.95;;
66460;Laerm;58055;52.456;4.738;2023-04-26T00:12:36;32.15;30.72;34.18;;
66460;Laerm;58055;52.456;4.738;2023-04-26T00:12:47;32.64;31.05;34.47;;
66460;Laerm;58055;52.456;4.738;2023-04-26T00:12:57;32.57;30.98;35.94;;
66460;Laerm;58055;52.456;4.738;2023-04-26T00:13:07;33.38;30.81;38.76;;
66460;Laerm;58055;52.456;4.738;2023-04-26T00:13:18;33.16;30.91;38.49;;
66460;Laerm;58055;52.456;4.738;2023-04-26T00:13:28;32.21;30.67;34.15;;
66460;Laerm;58055;52.456;4.738;2023-04-26T00:13:38;31.80;30.51;33.14;;
66460;Laerm;58055;52.456;4.738;2023-04-26T00:13:48;31.66;30.10;33.58;;
66460;Laerm;58055;52.456;4.738;2023-04-26T00:13:59;32.52;30.70;34.26;;
66460;Laerm;58055;52.456;4.738;2023-04-26T00:14:09;31.66;30.38;33.71;;
66460;Laerm;58055;52.456;4.738;2023-04-26T00:14:20;32.36;30.27;38.44;;
66460;Laerm;58055;52.456;4.738;2023-04-26T00:14:30;31.93;30.33;33.52;;
66460;Laerm;58055;52.456;4.738;2023-04-26T00:14:41;31.92;30.36;33.76;;
66460;Laerm;58055;52.456;4.738;2023-04-26T00:14:51;32.23;30.90;34.08;;
66460;Laerm;58055;52.456;4.738;2023-04-26T00:15:04;32.41;30.73;33.76;;
66460;Laerm;58055;52.456;4.738;2023-04-26T00:15:15;31.97;30.25;33.57;;
66460;Laerm;58055;52.456;4.738;2023-04-26T00:15:25;32.67;30.98;35.98;;
66460;Laerm;58055;52.456;4.738;2023-04-26T00:15:36;31.86;30.23;33.20;;
66460;Laerm;58055;52.456;4.738;2023-04-26T00:15:46;32.09;30.72;34.84;;
66460;Laerm;58055;52.456;4.738;2023-04-26T00:15:56;31.91;30.21;34.62;;
66460;Laerm;58055;52.456;4.738;2023-04-26T00:16:06;32.12;30.44;35.69;;
66460;Laerm;58055;52.456;4.738;2023-04-26T00:16:17;32.90;30.44;40.86;;
66460;Laerm;58055;52.456;4.738;2023-04-26T00:16:29;32.17;30.45;37.79;;
66460;Laerm;58055;52.456;4.738;2023-04-26T00:16:39;32.01;30.53;34.25;;
66460;Laerm;58055;52.456;4.738;2023-04-26T00:16:49;31.79;30.21;32.94;;
66460;Laerm;58055;52.456;4.738;2023-04-26T00:16:59;31.65;30.20;35.29;;
66460;Laerm;58055;52.456;4.738;2023-04-26T00:17:12;31.77;30.05;37.83;;
66460;Laerm;58055;52.456;4.738;2023-04-26T00:17:22;31.80;30.32;33.28;;
66460;Laerm;58055;52.456;4.738;2023-04-26T00:17:34;32.31;30.71;33.88;;
66460;Laerm;58055;52.456;4.738;2023-04-26T00:17:45;32.59;31.11;34.99;;
66460;Laerm;58055;52.456;4.738;2023-04-26T00:17:55;32.86;30.92;37.73;;
66460;Laerm;58055;52.456;4.738;2023-04-26T00:18:05;32.11;30.69;34.63;;
66460;Laerm;58055;52.456;4.738;2023-04-26T00:18:15;32.41;30.59;36.53;;
66460;Laerm;58055;52.456;4.738;2023-04-26T00:18:26;32.38;30.32;35.18;;
66460;Laerm;58055;52.456;4.738;2023-04-26T00:18:37;33.49;30.85;37.15;;
66460;Laerm;58055;52.456;4.738;2023-04-26T00:18:47;33.33;30.49;38.31;;
66460;Laerm;58055;52.456;4.738;2023-04-26T00:18:58;34.50;31.71;43.39;;
66460;Laerm;58055;52.456;4.738;2023-04-26T00:19:08;33.12;30.96;37.84;;
66460;Laerm;58055;52.456;4.738;2023-04-26T00:19:21;33.27;31.02;36.12;;
66460;Laerm;58055;52.456;4.738;2023-04-26T00:19:33;33.63;31.20;38.28;;
66460;Laerm;58055;52.456;4.738;2023-04-26T00:19:43;34.15;32.27;37.39;;
66460;Laerm;58055;52.456;4.738;2023-04-26T00:19:54;33.62;31.60;35.84;;
66460;Laerm;58055;52.456;4.738;2023-04-26T00:20:06;33.04;31.54;34.68;;
66460;Laerm;58055;52.456;4.738;2023-04-26T00:20:19;33.08;30.93;34.68;;
66460;Laerm;58055;52.456;4.738;2023-04-26T00:20:29;32.97;31.42;35.63;;
66460;Laerm;58055;52.456;4.738;2023-04-26T00:20:39;33.47;31.74;38.50;;
66460;Laerm;58055;52.456;4.738;2023-04-26T00:20:50;32.78;31.30;35.46;;
66460;Laerm;58055;52.456;4.738;2023-04-26T00:21:00;32.75;31.27;34.40;;
66460;Laerm;58055;52.456;4.738;2023-04-26T00:21:11;32.82;31.27;34.33;;
66460;Laerm;58055;52.456;4.738;2023-04-26T00:21:22;32.91;31.26;35.00;;
66460;Laerm;58055;52.456;4.738;2023-04-26T00:21:32;32.63;31.33;34.61;;
66460;Laerm;58055;52.456;4.738;2023-04-26T00:21:42;32.82;31.12;35.51;;
66460;Laerm;58055;52.456;4.738;2023-04-26T00:21:53;33.10;31.21;37.28;;
66460;Laerm;58055;52.456;4.738;2023-04-26T00:22:03;33.10;31.03;36.14;;
66460;Laerm;58055;52.456;4.738;2023-04-26T00:22:14;33.20;31.26;38.52;;
66460;Laerm;58055;52.456;4.738;2023-04-26T00:22:24;32.76;31.08;34.20;;
66460;Laerm;58055;52.456;4.738;2023-04-26T00:22:34;32.46;30.44;34.15;;
66460;Laerm;58055;52.456;4.738;2023-04-26T00:22:45;32.96;31.05;34.45;;
66460;Laerm;58055;52.456;4.738;2023-04-26T00:22:55;32.91;31.25;34.40;;
66460;Laerm;58055;52.456;4.738;2023-04-26T00:23:06;32.78;30.96;35.00;;
66460;Laerm;58055;52.456;4.738;2023-04-26T00:23:18;32.33;30.58;33.84;;
66460;Laerm;58055;52.456;4.738;2023-04-26T00:23:28;32.55;30.54;37.35;;
66460;Laerm;58055;52.456;4.738;2023-04-26T00:23:38;32.46;30.50;37.95;;
66460;Laerm;58055;52.456;4.738;2023-04-26T00:23:49;32.20;30.82;33.57;;
66460;Laerm;58055;52.456;4.738;2023-04-26T00:24:00;32.07;30.75;33.60;;
66460;Laerm;58055;52.456;4.738;2023-04-26T00:24:10;32.37;30.68;33.97;;
66460;Laerm;58055;52.456;4.738;2023-04-26T00:24:21;32.55;31.14;34.60;;
66460;Laerm;58055;52.456;4.738;2023-04-26T00:24:31;32.46;30.85;36.80;;
66460;Laerm;58055;52.456;4.738;2023-04-26T00:24:42;32.12;30.79;33.25;;
66460;Laerm;58055;52.456;4.738;2023-04-26T00:24:52;32.03;30.79;33.36;;
66460;Laerm;58055;52.456;4.738;2023-04-26T00:25:02;32.37;30.46;33.90;;
66460;Laerm;58055;52.456;4.738;2023-04-26T00:25:13;32.24;30.26;33.71;;
66460;Laerm;58055;52.456;4.738;2023-04-26T00:25:23;32.25;30.79;33.73;;
66460;Laerm;58055;52.456;4.738;2023-04-26T00:25:33;32.70;30.79;38.31;;
66460;Laerm;58055;52.456;4.738;2023-04-26T00:25:44;32.20;30.48;36.00;;
66460;Laerm;58055;52.456;4.738;2023-04-26T00:25:55;32.23;30.71;33.85;;
66460;Laerm;58055;52.456;4.738;2023-04-26T00:26:05;32.15;30.50;34.67;;
66460;Laerm;58055;52.456;4.738;2023-04-26T00:26:16;32.13;30.92;33.74;;
66460;Laerm;58055;52.456;4.738;2023-04-26T00:26:26;32.38;31.02;34.20;;
66460;Laerm;58055;52.456;4.738;2023-04-26T00:26:37;32.70;30.86;37.08;;
66460;Laerm;58055;52.456;4.738;2023-04-26T00:26:47;32.76;30.70;37.14;;
66460;Laerm;58055;52.456;4.738;2023-04-26T00:26:57;32.38;30.87;33.92;;
66460;Laerm;58055;52.456;4.738;2023-04-26T00:27:08;32.23;30.97;33.53;;
66460;Laerm;58055;52.456;4.738;2023-04-26T00:27:19;32.17;30.88;33.43;;
66460;Laerm;58055;52.456;4.738;2023-04-26T00:27:30;32.56;30.58;37.90;;
66460;Laerm;58055;52.456;4.738;2023-04-26T00:27:40;31.96;30.10;33.35;;
66460;Laerm;58055;52.456;4.738;2023-04-26T00:27:51;31.89;30.57;33.79;;
66460;Laerm;58055;52.456;4.738;2023-04-26T00:28:01;32.06;30.69;33.52;;
66460;Laerm;58055;52.456;4.738;2023-04-26T00:28:12;32.26;30.65;36.64;;
66460;Laerm;58055;52.456;4.738;2023-04-26T00:28:22;32.41;30.78;34.36;;
66460;Laerm;58055;52.456;4.738;2023-04-26T00:28:32;32.26;30.88;38.54;;
66460;Laerm;58055;52.456;4.738;2023-04-26T00:28:42;32.01;30.71;38.60;;
66460;Laerm;58055;52.456;4.738;2023-04-26T00:28:53;32.13;30.62;33.64;;
66460;Laerm;58055;52.456;4.738;2023-04-26T00:29:03;32.30;30.95;33.99;;
66460;Laerm;58055;52.456;4.738;2023-04-26T00:29:13;32.38;30.99;37.25;;
66460;Laerm;58055;52.456;4.738;2023-04-26T00:29:23;32.62;30.97;38.30;;
66460;Laerm;58055;52.456;4.738;2023-04-26T00:29:34;32.92;30.82;37.54;;
66460;Laerm;58055;52.456;4.738;2023-04-26T00:29:44;33.02;31.28;34.91;;
66460;Laerm;58055;52.456;4.738;2023-04-26T00:29:55;33.03;30.89;34.95;;
66460;Laerm;58055;52.456;4.738;2023-04-26T00:30:05;32.31;30.42;34.49;;
66460;Laerm;58055;52.456;4.738;2023-04-26T00:30:16;32.42;30.70;37.19;;
66460;Laerm;58055;52.456;4.738;2023-04-26T00:30:26;32.91;30.93;37.30;;
66460;Laerm;58055;52.456;4.738;2023-04-26T00:30:36;38.22;30.86;49.36;;
66460;Laerm;58055;52.456;4.738;2023-04-26T00:30:50;32.35;30.90;35.59;;
66460;Laerm;58055;52.456;4.738;2023-04-26T00:31:00;32.12;30.39;34.90;;
66460;Laerm;58055;52.456;4.738;2023-04-26T00:31:14;32.19;30.60;33.81;;
66460;Laerm;58055;52.456;4.738;2023-04-26T00:31:24;32.15;30.53;33.65;;
66460;Laerm;58055;52.456;4.738;2023-04-26T00:31:34;32.14;30.84;33.61;;
66460;Laerm;58055;52.456;4.738;2023-04-26T00:31:45;32.41;30.69;35.66;;
66460;Laerm;58055;52.456;4.738;2023-04-26T00:31:55;32.28;30.53;34.10;;
66460;Laerm;58055;52.456;4.738;2023-04-26T00:32:06;31.97;30.29;33.96;;
66460;Laerm;58055;52.456;4.738;2023-04-26T00:32:16;32.01;30.56;33.77;;
66460;Laerm;58055;52.456;4.738;2023-04-26T00:32:27;32.27;30.67;35.12;;
66460;Laerm;58055;52.456;4.738;2023-04-26T00:32:37;32.31;30.77;33.92;;
66460;Laerm;58055;52.456;4.738;2023-04-26T00:32:47;33.04;31.17;37.64;;
66460;Laerm;58055;52.456;4.738;2023-04-26T00:32:57;32.61;30.96;35.84;;
66460;Laerm;58055;52.456;4.738;2023-04-26T00:33:08;32.42;30.96;33.93;;
66460;Laerm;58055;52.456;4.738;2023-04-26T00:33:18;32.31;30.81;34.96;;
66460;Laerm;58055;52.456;4.738;2023-04-26T00:33:28;32.33;30.94;34.17;;
66460;Laerm;58055;52.456;4.738;2023-04-26T00:33:39;32.21;30.69;33.61;;
66460;Laerm;58055;52.456;4.738;2023-04-26T00:33:50;32.25;30.73;34.02;;
66460;Laerm;58055;52.456;4.738;2023-04-26T00:34:00;32.27;30.84;33.59;;
66460;Laerm;58055;52.456;4.738;2023-04-26T00:34:10;32.37;30.86;33.89;;
66460;Laerm;58055;52.456;4.738;2023-04-26T00:34:21;32.38;30.70;33.87;;
66460;Laerm;58055;52.456;4.738;2023-04-26T00:34:34;32.26;30.70;33.69;;
66460;Laerm;58055;52.456;4.738;2023-04-26T00:34:45;32.35;30.93;34.20;;
66460;Laerm;58055;52.456;4.738;2023-04-26T00:34:55;32.26;30.65;34.72;;
66460;Laerm;58055;52.456;4.738;2023-04-26T00:35:05;32.47;30.33;35.14;;
66460;Laerm;58055;52.456;4.738;2023-04-26T00:35:16;32.42;30.96;37.68;;
66460;Laerm;58055;52.456;4.738;2023-04-26T00:35:26;32.23;30.67;40.20;;
66460;Laerm;58055;52.456;4.738;2023-04-26T00:35:36;32.48;30.85;36.79;;
66460;Laerm;58055;52.456;4.738;2023-04-26T00:35:47;31.97;30.38;33.36;;
66460;Laerm;58055;52.456;4.738;2023-04-26T00:35:57;31.97;30.18;34.05;;
66460;Laerm;58055;52.456;4.738;2023-04-26T00:36:07;31.82;30.51;33.09;;
66460;Laerm;58055;52.456;4.738;2023-04-26T00:36:17;31.86;30.34;35.25;;
66460;Laerm;58055;52.456;4.738;2023-04-26T00:36:28;32.11;30.41;38.77;;
66460;Laerm;58055;52.456;4.738;2023-04-26T00:36:38;32.16;30.19;36.01;;
66460;Laerm;58055;52.456;4.738;2023-04-26T00:36:49;32.32;30.77;34.14;;
66460;Laerm;58055;52.456;4.738;2023-04-26T00:36:59;32.29;30.65;33.77;;
66460;Laerm;58055;52.456;4.738;2023-04-26T00:37:09;32.43;30.58;34.57;;
66460;Laerm;58055;52.456;4.738;2023-04-26T00:37:19;32.95;30.16;35.15;;
66460;Laerm;58055;52.456;4.738;2023-04-26T00:37:30;32.85;31.25;34.81;;
66460;Laerm;58055;52.456;4.738;2023-04-26T00:37:40;32.33;30.53;35.19;;
66460;Laerm;58055;52.456;4.738;2023-04-26T00:37:51;32.47;30.64;37.53;;
66460;Laerm;58055;52.456;4.738;2023-04-26T00:38:01;32.50;30.48;36.67;;
66460;Laerm;58055;52.456;4.738;2023-04-26T00:38:11;32.46;30.77;35.86;;
66460;Laerm;58055;52.456;4.738;2023-04-26T00:38:22;32.44;30.88;36.26;;
66460;Laerm;58055;52.456;4.738;2023-04-26T00:38:32;33.90;31.18;38.60;;
66460;Laerm;58055;52.456;4.738;2023-04-26T00:38:42;35.41;31.36;42.45;;
66460;Laerm;58055;52.456;4.738;2023-04-26T00:38:52;37.25;31.41;43.93;;
66460;Laerm;58055;52.456;4.738;2023-04-26T00:39:03;36.72;30.88;43.60;;
66460;Laerm;58055;52.456;4.738;2023-04-26T00:39:13;38.79;31.33;47.59;;
66460;Laerm;58055;52.456;4.738;2023-04-26T00:39:23;38.24;31.55;47.10;;
66460;Laerm;58055;52.456;4.738;2023-04-26T00:39:34;37.06;31.64;44.14;;
66460;Laerm;58055;52.456;4.738;2023-04-26T00:39:44;37.57;32.21;46.02;;
66460;Laerm;58055;52.456;4.738;2023-04-26T00:39:54;36.43;31.81;45.38;;
66460;Laerm;58055;52.456;4.738;2023-04-26T00:40:06;36.10;31.84;42.83;;
66460;Laerm;58055;52.456;4.738;2023-04-26T00:40:16;32.56;30.75;35.14;;
66460;Laerm;58055;52.456;4.738;2023-04-26T00:40:27;32.82;30.83;36.44;;
66460;Laerm;58055;52.456;4.738;2023-04-26T00:40:37;32.95;30.57;37.05;;
66460;Laerm;58055;52.456;4.738;2023-04-26T00:40:47;32.65;30.51;34.99;;
66460;Laerm;58055;52.456;4.738;2023-04-26T00:40:57;33.67;31.05;39.01;;
66460;Laerm;58055;52.456;4.738;2023-04-26T00:41:08;34.03;30.74;41.34;;
66460;Laerm;58055;52.456;4.738;2023-04-26T00:41:18;34.71;30.70;39.77;;
66460;Laerm;58055;52.456;4.738;2023-04-26T00:41:28;34.65;30.90;41.91;;
66460;Laerm;58055;52.456;4.738;2023-04-26T00:41:38;33.20;30.72;37.24;;
66460;Laerm;58055;52.456;4.738;2023-04-26T00:41:49;34.35;30.79;40.51;;
66460;Laerm;58055;52.456;4.738;2023-04-26T00:41:59;36.51;30.87;44.47;;
66460;Laerm;58055;52.456;4.738;2023-04-26T00:42:10;34.27;30.77;40.35;;
66460;Laerm;58055;52.456;4.738;2023-04-26T00:42:21;34.98;30.53;40.88;;
66460;Laerm;58055;52.456;4.738;2023-04-26T00:42:31;37.27;31.46;45.85;;
66460;Laerm;58055;52.456;4.738;2023-04-26T00:42:41;40.54;30.83;49.83;;
66460;Laerm;58055;52.456;4.738;2023-04-26T00:42:55;37.04;31.37;48.10;;
66460;Laerm;58055;52.456;4.738;2023-04-26T00:43:06;36.87;31.37;45.13;;
66460;Laerm;58055;52.456;4.738;2023-04-26T00:43:16;34.00;31.55;42.43;;
66460;Laerm;58055;52.456;4.738;2023-04-26T00:43:26;33.02;31.25;36.15;;
66460;Laerm;58055;52.456;4.738;2023-04-26T00:43:37;32.74;31.18;35.23;;
66460;Laerm;58055;52.456;4.738;2023-04-26T00:43:48;32.76;31.23;34.86;;
66460;Laerm;58055;52.456;4.738;2023-04-26T00:43:59;32.87;30.96;35.97;;
66460;Laerm;58055;52.456;4.738;2023-04-26T00:44:09;32.44;30.91;35.34;;
66460;Laerm;58055;52.456;4.738;2023-04-26T00:44:19;33.18;30.35;37.72;;
66460;Laerm;58055;52.456;4.738;2023-04-26T00:44:30;33.24;31.17;37.19;;
66460;Laerm;58055;52.456;4.738;2023-04-26T00:44:40;33.42;30.71;37.73;;
66460;Laerm;58055;52.456;4.738;2023-04-26T00:44:50;32.95;30.86;41.70;;
66460;Laerm;58055;52.456;4.738;2023-04-26T00:45:05;33.09;30.98;39.56;;
66460;Laerm;58055;52.456;4.738;2023-04-26T00:45:16;32.32;30.49;37.03;;
66460;Laerm;58055;52.456;4.738;2023-04-26T00:45:26;32.37;30.64;36.22;;
66460;Laerm;58055;52.456;4.738;2023-04-26T00:45:36;33.33;30.93;40.67;;
66460;Laerm;58055;52.456;4.738;2023-04-26T00:45:47;32.26;30.64;36.66;;
66460;Laerm;58055;52.456;4.738;2023-04-26T00:45:58;32.98;30.91;40.47;;
66460;Laerm;58055;52.456;4.738;2023-04-26T00:46:08;32.07;30.56;34.73;;
66460;Laerm;58055;52.456;4.738;2023-04-26T00:46:19;32.67;31.01;36.59;;
66460;Laerm;58055;52.456;4.738;2023-04-26T00:46:30;32.62;30.67;35.59;;
66460;Laerm;58055;52.456;4.738;2023-04-26T00:46:40;32.53;30.70;35.63;;
66460;Laerm;58055;52.456;4.738;2023-04-26T00:46:51;32.80;31.09;35.46;;
66460;Laerm;58055;52.456;4.738;2023-04-26T00:47:01;32.67;30.76;35.35;;
66460;Laerm;58055;52.456;4.738;2023-04-26T00:47:12;32.57;30.89;35.40;;
66460;Laerm;58055;52.456;4.738;2023-04-26T00:47:23;33.04;31.02;37.21;;
66460;Laerm;58055;52.456;4.738;2023-04-26T00:47:34;33.36;31.21;38.41;;
66460;Laerm;58055;52.456;4.738;2023-04-26T00:47:44;33.06;31.05;35.14;;
66460;Laerm;58055;52.456;4.738;2023-04-26T00:47:55;32.24;30.94;34.05;;
66460;Laerm;58055;52.456;4.738;2023-04-26T00:48:05;32.13;30.95;34.28;;
66460;Laerm;58055;52.456;4.738;2023-04-26T00:48:15;32.27;30.61;33.84;;
66460;Laerm;58055;52.456;4.738;2023-04-26T00:48:26;32.03;30.56;33.46;;
66460;Laerm;58055;52.456;4.738;2023-04-26T00:48:37;32.08;30.80;34.18;;
66460;Laerm;58055;52.456;4.738;2023-04-26T00:48:47;32.52;30.56;37.24;;
66460;Laerm;58055;52.456;4.738;2023-04-26T00:48:57;32.31;30.67;36.19;;
66460;Laerm;58055;52.456;4.738;2023-04-26T00:49:08;32.43;30.85;36.63;;
66460;Laerm;58055;52.456;4.738;2023-04-26T00:49:23;32.05;30.95;34.43;;
66460;Laerm;58055;52.456;4.738;2023-04-26T00:49:33;32.26;30.88;37.11;;
66460;Laerm;58055;52.456;4.738;2023-04-26T00:49:43;32.40;30.93;35.11;;
66460;Laerm;58055;52.456;4.738;2023-04-26T00:49:54;32.38;30.79;35.33;;
66460;Laerm;58055;52.456;4.738;2023-04-26T00:50:04;32.39;30.65;33.92;;
66460;Laerm;58055;52.456;4.738;2023-04-26T00:50:16;32.12;30.90;33.93;;
66460;Laerm;58055;52.456;4.738;2023-04-26T00:50:26;32.49;31.06;34.00;;
66460;Laerm;58055;52.456;4.738;2023-04-26T00:50:37;32.05;30.42;33.86;;
66460;Laerm;58055;52.456;4.738;2023-04-26T00:50:47;32.39;30.94;34.07;;
66460;Laerm;58055;52.456;4.738;2023-04-26T00:50:57;32.16;30.53;39.96;;
66460;Laerm;58055;52.456;4.738;2023-04-26T00:51:07;32.73;30.17;39.44;;
66460;Laerm;58055;52.456;4.738;2023-04-26T00:51:18;32.08;30.28;33.71;;
66460;Laerm;58055;52.456;4.738;2023-04-26T00:51:28;31.90;30.14;33.86;;
66460;Laerm;58055;52.456;4.738;2023-04-26T00:51:40;31.86;30.58;33.66;;
66460;Laerm;58055;52.456;4.738;2023-04-26T00:51:51;32.29;30.94;34.42;;
66460;Laerm;58055;52.456;4.738;2023-04-26T00:52:01;32.70;30.96;34.41;;
66460;Laerm;58055;52.456;4.738;2023-04-26T00:52:12;38.95;32.06;43.43;;
66460;Laerm;58055;52.456;4.738;2023-04-26T00:52:25;37.77;32.59;44.65;;
66460;Laerm;58055;52.456;4.738;2023-04-26T00:52:42;35.63;31.05;43.77;;
66460;Laerm;58055;52.456;4.738;2023-04-26T00:52:52;32.57;30.19;37.19;;
66460;Laerm;58055;52.456;4.738;2023-04-26T00:53:03;31.94;30.69;34.00;;
66460;Laerm;58055;52.456;4.738;2023-04-26T00:53:13;32.09;30.35;34.49;;
66460;Laerm;58055;52.456;4.738;2023-04-26T00:53:24;31.92;30.52;33.48;;
66460;Laerm;58055;52.456;4.738;2023-04-26T00:53:35;31.96;30.35;34.40;;
66460;Laerm;58055;52.456;4.738;2023-04-26T00:53:46;32.64;30.64;47.18;;
66460;Laerm;58055;52.456;4.738;2023-04-26T00:53:56;32.52;30.72;38.88;;
66460;Laerm;58055;52.456;4.738;2023-04-26T00:54:06;33.17;30.80;48.29;;
66460;Laerm;58055;52.456;4.738;2023-04-26T00:54:17;33.37;30.94;41.94;;
66460;Laerm;58055;52.456;4.738;2023-04-26T00:54:29;32.38;30.68;34.14;;
66460;Laerm;58055;52.456;4.738;2023-04-26T00:54:39;33.25;31.44;41.76;;
66460;Laerm;58055;52.456;4.738;2023-04-26T00:54:50;33.64;31.25;39.62;;
66460;Laerm;58055;52.456;4.738;2023-04-26T00:55:02;38.84;32.29;44.68;;
66460;Laerm;58055;52.456;4.738;2023-04-26T00:55:12;33.44;31.00;38.84;;
66460;Laerm;58055;52.456;4.738;2023-04-26T00:55:23;32.11;30.72;34.91;;
66460;Laerm;58055;52.456;4.738;2023-04-26T00:55:36;31.70;29.90;40.35;;
66460;Laerm;58055;52.456;4.738;2023-04-26T00:55:46;31.77;30.61;33.21;;
66460;Laerm;58055;52.456;4.738;2023-04-26T00:55:57;31.74;30.49;33.27;;
66460;Laerm;58055;52.456;4.738;2023-04-26T00:56:08;32.37;30.46;35.56;;
66460;Laerm;58055;52.456;4.738;2023-04-26T00:56:18;32.18;30.75;33.88;;
66460;Laerm;58055;52.456;4.738;2023-04-26T00:56:30;31.87;30.29;34.45;;
66460;Laerm;58055;52.456;4.738;2023-04-26T00:56:41;31.91;30.13;35.77;;
66460;Laerm;58055;52.456;4.738;2023-04-26T00:56:52;31.71;30.32;36.24;;
66460;Laerm;58055;52.456;4.738;2023-04-26T00:57:03;31.77;29.84;33.74;;
66460;Laerm;58055;52.456;4.738;2023-04-26T00:57:13;31.68;30.12;33.35;;
66460;Laerm;58055;52.456;4.738;2023-04-26T00:57:23;32.39;30.39;41.95;;
66460;Laerm;58055;52.456;4.738;2023-04-26T00:57:35;31.90;30.39;34.85;;
66460;Laerm;58055;52.456;4.738;2023-04-26T00:57:45;32.01;30.59;34.95;;
66460;Laerm;58055;52.456;4.738;2023-04-26T00:57:55;32.48;30.71;38.96;;
66460;Laerm;58055;52.456;4.738;2023-04-26T00:58:06;31.81;30.40;32.95;;
66460;Laerm;58055;52.456;4.738;2023-04-26T00:58:16;32.05;30.43;35.39;;
66460;Laerm;58055;52.456;4.738;2023-04-26T00:58:30;32.69;30.67;41.24;;
66460;Laerm;58055;52.456;4.738;2023-04-26T00:58:40;32.68;30.61;36.48;;
66460;Laerm;58055;52.456;4.738;2023-04-26T00:58:50;33.43;31.17;39.35;;
66460;Laerm;58055;52.456;4.738;2023-04-26T00:59:01;32.95;30.69;39.04;;
66460;Laerm;58055;52.456;4.738;2023-04-26T00:59:12;32.03;30.55;35.17;;
66460;Laerm;58055;52.456;4.738;2023-04-26T00:59:22;31.90;30.67;33.14;;
66460;Laerm;58055;52.456;4.738;2023-04-26T00:59:32;32.30;30.71;34.29;;
66460;Laerm;58055;52.456;4.738;2023-04-26T00:59:44;32.34;30.69;34.47;;
66460;Laerm;58055;52.456;4.738;2023-04-26T00:59:54;32.33;30.94;35.30;;